Aviation Digital Data Service (ADDS)

Output produced by METARs form (1933 UTC 26 September 2021)
found at http://www.aviationweather.gov/metar/data/
 
METAR text: KSMF 261853Z 19005KT 10SM FEW250 22/09 A2998 RMK AO2 SLP151 T02220094
Conditions at: KSMF (SACRAMENTO/METRO, CA, US) observed 1853 UTC 26 September 2021
Temperature: 22.2°C (72°F)
Dewpoint: 9.4°C (49°F) [RH = 44%]
Pressure (altimeter): 29.98 inches Hg (1015.3 mb)
[Sea-level pressure: 1015.1 mb]
Winds: from the S (190 degrees) at 6 MPH (5 knots; 2.6 m/s)
Visibility: 10 or more miles (16+ km)
Ceiling: at least 12,000 feet AGL
Clouds: few clouds at 25000 feet AGL
Weather: no significant weather observed at this time

METAR text: KSMF 261753Z 18007KT 10SM FEW250 21/09 A2998 RMK AO2 SLP151 T02060094 10206 20133 51010
Conditions at: KSMF (SACRAMENTO/METRO, CA, US) observed 1753 UTC 26 September 2021
Temperature: 20.6°C (69°F)
Dewpoint: 9.4°C (49°F) [RH = 49%]
Pressure (altimeter): 29.98 inches Hg (1015.3 mb)
[Sea-level pressure: 1015.1 mb]
Winds: from the S (180 degrees) at 8 MPH (7 knots; 3.6 m/s)
Visibility: 10 or more miles (16+ km)
Ceiling: at least 12,000 feet AGL
Clouds: few clouds at 25000 feet AGL
Weather: no significant weather observed at this time

METAR text: KSMF 261653Z 17007KT 10SM FEW250 18/10 A2997 RMK AO2 SLP149 T01780100
Conditions at: KSMF (SACRAMENTO/METRO, CA, US) observed 1653 UTC 26 September 2021
Temperature: 17.8°C (64°F)
Dewpoint: 10.0°C (50°F) [RH = 60%]
Pressure (altimeter): 29.97 inches Hg (1015.0 mb)
[Sea-level pressure: 1014.9 mb]
Winds: from the S (170 degrees) at 8 MPH (7 knots; 3.6 m/s)
Visibility: 10 or more miles (16+ km)
Ceiling: at least 12,000 feet AGL
Clouds: few clouds at 25000 feet AGL
Weather: no significant weather observed at this time

METAR text: KSMF 261553Z 17009KT 10SM SCT250 16/11 A2996 RMK AO2 SLP144 T01560106
Conditions at: KSMF (SACRAMENTO/METRO, CA, US) observed 1553 UTC 26 September 2021
Temperature: 15.6°C (60°F)
Dewpoint: 10.6°C (51°F) [RH = 72%]
Pressure (altimeter): 29.96 inches Hg (1014.6 mb)
[Sea-level pressure: 1014.4 mb]
Winds: from the S (170 degrees) at 10 MPH (9 knots; 4.6 m/s)
Visibility: 10 or more miles (16+ km)
Ceiling: at least 12,000 feet AGL
Clouds: scattered clouds at 25000 feet AGL
Weather: no significant weather observed at this time

METAR text: KSMF 261453Z 15010KT 10SM SCT250 14/11 A2995 RMK AO2 SLP141 T01390106 53008
Conditions at: KSMF (SACRAMENTO/METRO, CA, US) observed 1453 UTC 26 September 2021
Temperature: 13.9°C (57°F)
Dewpoint: 10.6°C (51°F) [RH = 80%]
Pressure (altimeter): 29.95 inches Hg (1014.3 mb)
[Sea-level pressure: 1014.1 mb]
Winds: from the SSE (150 degrees) at 12 MPH (10 knots; 5.1 m/s)
Visibility: 10 or more miles (16+ km)
Ceiling: at least 12,000 feet AGL
Clouds: scattered clouds at 25000 feet AGL
Weather: no significant weather observed at this time

METAR text: KSMF 261353Z 16009KT 10SM SCT250 14/11 A2993 RMK AO2 SLP135 T01390106
Conditions at: KSMF (SACRAMENTO/METRO, CA, US) observed 1353 UTC 26 September 2021
Temperature: 13.9°C (57°F)
Dewpoint: 10.6°C (51°F) [RH = 80%]
Pressure (altimeter): 29.93 inches Hg (1013.6 mb)
[Sea-level pressure: 1013.5 mb]
Winds: from the SSE (160 degrees) at 10 MPH (9 knots; 4.6 m/s)
Visibility: 10 or more miles (16+ km)
Ceiling: at least 12,000 feet AGL
Clouds: scattered clouds at 25000 feet AGL
Weather: no significant weather observed at this time

METAR text: KSMF 261253Z 16011KT 10SM SCT250 14/11 A2993 RMK AO2 SLP135 T01390106
Conditions at: KSMF (SACRAMENTO/METRO, CA, US) observed 1253 UTC 26 September 2021
Temperature: 13.9°C (57°F)
Dewpoint: 10.6°C (51°F) [RH = 80%]
Pressure (altimeter): 29.93 inches Hg (1013.6 mb)
[Sea-level pressure: 1013.5 mb]
Winds: from the SSE (160 degrees) at 13 MPH (11 knots; 5.7 m/s)
Visibility: 10 or more miles (16+ km)
Ceiling: at least 12,000 feet AGL
Clouds: scattered clouds at 25000 feet AGL
Weather: no significant weather observed at this time

METAR text: KSMF 261153Z 16014KT 10SM BKN250 14/11 A2992 RMK AO2 SLP133 T01390106 10167 20139 53000
Conditions at: KSMF (SACRAMENTO/METRO, CA, US) observed 1153 UTC 26 September 2021
Temperature: 13.9°C (57°F)
Dewpoint: 10.6°C (51°F) [RH = 80%]
Pressure (altimeter): 29.92 inches Hg (1013.3 mb)
[Sea-level pressure: 1013.3 mb]
Winds: from the SSE (160 degrees) at 16 MPH (14 knots; 7.2 m/s)
Visibility: 10 or more miles (16+ km)
Ceiling: 25000 feet AGL
Clouds: broken clouds at 25000 feet AGL
Weather: no significant weather observed at this time

METAR text: KSMF 261053Z 17014KT 10SM CLR 14/11 A2992 RMK AO2 SLP130 T01390106
Conditions at: KSMF (SACRAMENTO/METRO, CA, US) observed 1053 UTC 26 September 2021
Temperature: 13.9°C (57°F)
Dewpoint: 10.6°C (51°F) [RH = 80%]
Pressure (altimeter): 29.92 inches Hg (1013.3 mb)
[Sea-level pressure: 1013.0 mb]
Winds: from the S (170 degrees) at 16 MPH (14 knots; 7.2 m/s)
Visibility: 10 or more miles (16+ km)
Ceiling: at least 12,000 feet AGL
Clouds: sky clear below 12,000 feet AGL
Weather: no significant weather observed at this time

METAR text: KSMF 260953Z 16012KT 10SM CLR 14/10 A2992 RMK AO2 SLP132 T01390100
Conditions at: KSMF (SACRAMENTO/METRO, CA, US) observed 0953 UTC 26 September 2021
Temperature: 13.9°C (57°F)
Dewpoint: 10.0°C (50°F) [RH = 77%]
Pressure (altimeter): 29.92 inches Hg (1013.3 mb)
[Sea-level pressure: 1013.2 mb]
Winds: from the SSE (160 degrees) at 14 MPH (12 knots; 6.2 m/s)
Visibility: 10 or more miles (16+ km)
Ceiling: at least 12,000 feet AGL
Clouds: sky clear below 12,000 feet AGL
Weather: no significant weather observed at this time

METAR text: KSMF 260853Z 17013KT 10SM CLR 14/10 A2992 RMK AO2 SLP132 T01390100 53010
Conditions at: KSMF (SACRAMENTO/METRO, CA, US) observed 0853 UTC 26 September 2021
Temperature: 13.9°C (57°F)
Dewpoint: 10.0°C (50°F) [RH = 77%]
Pressure (altimeter): 29.92 inches Hg (1013.3 mb)
[Sea-level pressure: 1013.2 mb]
Winds: from the S (170 degrees) at 15 MPH (13 knots; 6.7 m/s)
Visibility: 10 or more miles (16+ km)
Ceiling: at least 12,000 feet AGL
Clouds: sky clear below 12,000 feet AGL
Weather: no significant weather observed at this time

METAR text: KSMF 260753Z 17012KT 10SM CLR 14/10 A2991 RMK AO2 SLP129 T01440100 403280144
Conditions at: KSMF (SACRAMENTO/METRO, CA, US) observed 0753 UTC 26 September 2021
Temperature: 14.4°C (58°F)
Dewpoint: 10.0°C (50°F) [RH = 75%]
Pressure (altimeter): 29.91 inches Hg (1013.0 mb)
[Sea-level pressure: 1012.9 mb]
Winds: from the S (170 degrees) at 14 MPH (12 knots; 6.2 m/s)
Visibility: 10 or more miles (16+ km)
Ceiling: at least 12,000 feet AGL
Clouds: sky clear below 12,000 feet AGL
Weather: no significant weather observed at this time

METAR text: KSMF 260653Z 17012KT 10SM CLR 16/11 A2990 RMK AO2 SLP125 T01560106
Conditions at: KSMF (SACRAMENTO/METRO, CA, US) observed 0653 UTC 26 September 2021
Temperature: 15.6°C (60°F)
Dewpoint: 10.6°C (51°F) [RH = 72%]
Pressure (altimeter): 29.90 inches Hg (1012.6 mb)
[Sea-level pressure: 1012.5 mb]
Winds: from the S (170 degrees) at 14 MPH (12 knots; 6.2 m/s)
Visibility: 10 or more miles (16+ km)
Ceiling: at least 12,000 feet AGL
Clouds: sky clear below 12,000 feet AGL
Weather: no significant weather observed at this time

METAR text: KSMF 260553Z 18012KT 10SM CLR 17/11 A2989 RMK AO2 SLP122 T01670111 10328 20167 53013
Conditions at: KSMF (SACRAMENTO/METRO, CA, US) observed 0553 UTC 26 September 2021
Temperature: 16.7°C (62°F)
Dewpoint: 11.1°C (52°F) [RH = 70%]
Pressure (altimeter): 29.89 inches Hg (1012.3 mb)
[Sea-level pressure: 1012.2 mb]
Winds: from the S (180 degrees) at 14 MPH (12 knots; 6.2 m/s)
Visibility: 10 or more miles (16+ km)
Ceiling: at least 12,000 feet AGL
Clouds: sky clear below 12,000 feet AGL
Weather: no significant weather observed at this time

METAR text: KSMF 260453Z 17013KT 10SM CLR 18/12 A2988 RMK AO2 SLP117 T01780117
Conditions at: KSMF (SACRAMENTO/METRO, CA, US) observed 0453 UTC 26 September 2021
Temperature: 17.8°C (64°F)
Dewpoint: 11.7°C (53°F) [RH = 67%]
Pressure (altimeter): 29.88 inches Hg (1011.9 mb)
[Sea-level pressure: 1011.7 mb]
Winds: from the S (170 degrees) at 15 MPH (13 knots; 6.7 m/s)
Visibility: 10 or more miles (16+ km)
Ceiling: at least 12,000 feet AGL
Clouds: sky clear below 12,000 feet AGL
Weather: no significant weather observed at this time

METAR text: KSMF 260353Z 17008KT 10SM CLR 19/12 A2987 RMK AO2 SLP114 T01940117
Conditions at: KSMF (SACRAMENTO/METRO, CA, US) observed 0353 UTC 26 September 2021
Temperature: 19.4°C (67°F)
Dewpoint: 11.7°C (53°F) [RH = 61%]
Pressure (altimeter): 29.87 inches Hg (1011.6 mb)
[Sea-level pressure: 1011.4 mb]
Winds: from the S (170 degrees) at 9 MPH (8 knots; 4.1 m/s)
Visibility: 10 or more miles (16+ km)
Ceiling: at least 12,000 feet AGL
Clouds: sky clear below 12,000 feet AGL
Weather: no significant weather observed at this time

METAR text: KSMF 260253Z 17010KT 10SM CLR 22/12 A2986 RMK AO2 SLP110 T02170122 53004
Conditions at: KSMF (SACRAMENTO/METRO, CA, US) observed 0253 UTC 26 September 2021
Temperature: 21.7°C (71°F)
Dewpoint: 12.2°C (54°F) [RH = 55%]
Pressure (altimeter): 29.86 inches Hg (1011.3 mb)
[Sea-level pressure: 1011.0 mb]
Winds: from the S (170 degrees) at 12 MPH (10 knots; 5.1 m/s)
Visibility: 10 or more miles (16+ km)
Ceiling: at least 12,000 feet AGL
Clouds: sky clear below 12,000 feet AGL
Weather: no significant weather observed at this time

METAR text: KSMF 260153Z 17010KT 10SM CLR 25/13 A2985 RMK AO2 SLP106 T02500128
Conditions at: KSMF (SACRAMENTO/METRO, CA, US) observed 0153 UTC 26 September 2021
Temperature: 25.0°C (77°F)
Dewpoint: 12.8°C (55°F) [RH = 47%]
Pressure (altimeter): 29.85 inches Hg (1010.9 mb)
[Sea-level pressure: 1010.6 mb]
Winds: from the S (170 degrees) at 12 MPH (10 knots; 5.1 m/s)
Visibility: 10 or more miles (16+ km)
Ceiling: at least 12,000 feet AGL
Clouds: sky clear below 12,000 feet AGL
Weather: no significant weather observed at this time

METAR text: KSMF 260053Z 17011KT 10SM CLR 29/12 A2984 RMK AO2 SLP105 T02940122
Conditions at: KSMF (SACRAMENTO/METRO, CA, US) observed 0053 UTC 26 September 2021
Temperature: 29.4°C (85°F)
Dewpoint: 12.2°C (54°F) [RH = 35%]
Pressure (altimeter): 29.84 inches Hg (1010.6 mb)
[Sea-level pressure: 1010.5 mb]
Winds: from the S (170 degrees) at 13 MPH (11 knots; 5.7 m/s)
Visibility: 10 or more miles (16+ km)
Ceiling: at least 12,000 feet AGL
Clouds: sky clear below 12,000 feet AGL
Weather: no significant weather observed at this time

METAR text: KSMF 252353Z 17007KT 10SM CLR 33/10 A2985 RMK AO2 SLP106 T03280100 10328 20222 56019
Conditions at: KSMF (SACRAMENTO/METRO, CA, US) observed 2353 UTC 25 September 2021
Temperature: 32.8°C (91°F)
Dewpoint: 10.0°C (50°F) [RH = 25%]
Pressure (altimeter): 29.85 inches Hg (1010.9 mb)
[Sea-level pressure: 1010.6 mb]
Winds: from the S (170 degrees) at 8 MPH (7 knots; 3.6 m/s)
Visibility: 10 or more miles (16+ km)
Ceiling: at least 12,000 feet AGL
Clouds: sky clear below 12,000 feet AGL
Weather: no significant weather observed at this time

METAR text: KSMF 252253Z 18006KT 10SM CLR 32/11 A2986 RMK AO2 SLP111 T03220106
Conditions at: KSMF (SACRAMENTO/METRO, CA, US) observed 2253 UTC 25 September 2021
Temperature: 32.2°C (90°F)
Dewpoint: 10.6°C (51°F) [RH = 27%]
Pressure (altimeter): 29.86 inches Hg (1011.3 mb)
[Sea-level pressure: 1011.1 mb]
Winds: from the S (180 degrees) at 7 MPH (6 knots; 3.1 m/s)
Visibility: 10 or more miles (16+ km)
Ceiling: at least 12,000 feet AGL
Clouds: sky clear below 12,000 feet AGL
Weather: no significant weather observed at this time

METAR text: KSMF 252153Z 15006KT 10SM CLR 31/11 A2988 RMK AO2 SLP116 T03110106
Conditions at: KSMF (SACRAMENTO/METRO, CA, US) observed 2153 UTC 25 September 2021
Temperature: 31.1°C (88°F)
Dewpoint: 10.6°C (51°F) [RH = 28%]
Pressure (altimeter): 29.88 inches Hg (1011.9 mb)
[Sea-level pressure: 1011.6 mb]
Winds: from the SSE (150 degrees) at 7 MPH (6 knots; 3.1 m/s)
Visibility: 10 or more miles (16+ km)
Ceiling: at least 12,000 feet AGL
Clouds: sky clear below 12,000 feet AGL
Weather: no significant weather observed at this time

METAR text: KSMF 252053Z VRB03KT 10SM CLR 30/10 A2990 RMK AO2 SLP125 T03000100 58016
Conditions at: KSMF (SACRAMENTO/METRO, CA, US) observed 2053 UTC 25 September 2021
Temperature: 30.0°C (86°F)
Dewpoint: 10.0°C (50°F) [RH = 29%]
Pressure (altimeter): 29.90 inches Hg (1012.6 mb)
[Sea-level pressure: 1012.5 mb]
Winds: variable direction winds at 3 MPH (3 knots; 1.5 m/s)
Visibility: 10 or more miles (16+ km)
Ceiling: at least 12,000 feet AGL
Clouds: sky clear below 12,000 feet AGL
Weather: no significant weather observed at this time

METAR text: KSMF 251953Z 17005KT 10SM CLR 28/10 A2993 RMK AO2 SLP134 T02780100
Conditions at: KSMF (SACRAMENTO/METRO, CA, US) observed 1953 UTC 25 September 2021
Temperature: 27.8°C (82°F)
Dewpoint: 10.0°C (50°F) [RH = 33%]
Pressure (altimeter): 29.93 inches Hg (1013.6 mb)
[Sea-level pressure: 1013.4 mb]
Winds: from the S (170 degrees) at 6 MPH (5 knots; 2.6 m/s)
Visibility: 10 or more miles (16+ km)
Ceiling: at least 12,000 feet AGL
Clouds: sky clear below 12,000 feet AGL
Weather: no significant weather observed at this time

METAR text: KSMF 251853Z 17003KT 10SM CLR 25/11 A2994 RMK AO2 SLP138 T02500106
Conditions at: KSMF (SACRAMENTO/METRO, CA, US) observed 1853 UTC 25 September 2021
Temperature: 25.0°C (77°F)
Dewpoint: 10.6°C (51°F) [RH = 40%]
Pressure (altimeter): 29.94 inches Hg (1014.0 mb)
[Sea-level pressure: 1013.8 mb]
Winds: from the S (170 degrees) at 3 MPH (3 knots; 1.5 m/s)
Visibility: 10 or more miles (16+ km)
Ceiling: at least 12,000 feet AGL
Clouds: sky clear below 12,000 feet AGL
Weather: no significant weather observed at this time

METAR text: KSMF 251753Z 18007KT 10SM CLR 22/11 A2995 RMK AO2 SLP142 T02220106 10222 20150 50006
Conditions at: KSMF (SACRAMENTO/METRO, CA, US) observed 1753 UTC 25 September 2021
Temperature: 22.2°C (72°F)
Dewpoint: 10.6°C (51°F) [RH = 48%]
Pressure (altimeter): 29.95 inches Hg (1014.3 mb)
[Sea-level pressure: 1014.2 mb]
Winds: from the S (180 degrees) at 8 MPH (7 knots; 3.6 m/s)
Visibility: 10 or more miles (16+ km)
Ceiling: at least 12,000 feet AGL
Clouds: sky clear below 12,000 feet AGL
Weather: no significant weather observed at this time

METAR text: KSMF 251653Z 17006KT 10SM CLR 19/11 A2996 RMK AO2 SLP143 T01890111
Conditions at: KSMF (SACRAMENTO/METRO, CA, US) observed 1653 UTC 25 September 2021
Temperature: 18.9°C (66°F)
Dewpoint: 11.1°C (52°F) [RH = 61%]
Pressure (altimeter): 29.96 inches Hg (1014.6 mb)
[Sea-level pressure: 1014.3 mb]
Winds: from the S (170 degrees) at 7 MPH (6 knots; 3.1 m/s)
Visibility: 10 or more miles (16+ km)
Ceiling: at least 12,000 feet AGL
Clouds: sky clear below 12,000 feet AGL
Weather: no significant weather observed at this time

METAR text: KSMF 251553Z 17009KT 10SM CLR 17/11 A2994 RMK AO2 SLP138 T01720106
Conditions at: KSMF (SACRAMENTO/METRO, CA, US) observed 1553 UTC 25 September 2021
Temperature: 17.2°C (63°F)
Dewpoint: 10.6°C (51°F) [RH = 65%]
Pressure (altimeter): 29.94 inches Hg (1014.0 mb)
[Sea-level pressure: 1013.8 mb]
Winds: from the S (170 degrees) at 10 MPH (9 knots; 4.6 m/s)
Visibility: 10 or more miles (16+ km)
Ceiling: at least 12,000 feet AGL
Clouds: sky clear below 12,000 feet AGL
Weather: no significant weather observed at this time

METAR text: KSMF 251453Z 15007KT 10SM CLR 16/11 A2993 RMK AO2 SLP136 T01610106 53010
Conditions at: KSMF (SACRAMENTO/METRO, CA, US) observed 1453 UTC 25 September 2021
Temperature: 16.1°C (61°F)
Dewpoint: 10.6°C (51°F) [RH = 70%]
Pressure (altimeter): 29.93 inches Hg (1013.6 mb)
[Sea-level pressure: 1013.6 mb]
Winds: from the SSE (150 degrees) at 8 MPH (7 knots; 3.6 m/s)
Visibility: 10 or more miles (16+ km)
Ceiling: at least 12,000 feet AGL
Clouds: sky clear below 12,000 feet AGL
Weather: no significant weather observed at this time

METAR text: KSMF 251353Z 14007KT 10SM CLR 15/10 A2992 RMK AO2 SLP132 T01500100
Conditions at: KSMF (SACRAMENTO/METRO, CA, US) observed 1353 UTC 25 September 2021
Temperature: 15.0°C (59°F)
Dewpoint: 10.0°C (50°F) [RH = 72%]
Pressure (altimeter): 29.92 inches Hg (1013.3 mb)
[Sea-level pressure: 1013.2 mb]
Winds: from the SE (140 degrees) at 8 MPH (7 knots; 3.6 m/s)
Visibility: 10 or more miles (16+ km)
Ceiling: at least 12,000 feet AGL
Clouds: sky clear below 12,000 feet AGL
Weather: no significant weather observed at this time

METAR text: KSMF 251253Z 16009KT 10SM FEW090 15/11 A2991 RMK AO2 SLP128 T01500106
Conditions at: KSMF (SACRAMENTO/METRO, CA, US) observed 1253 UTC 25 September 2021
Temperature: 15.0°C (59°F)
Dewpoint: 10.6°C (51°F) [RH = 75%]
Pressure (altimeter): 29.91 inches Hg (1013.0 mb)
[Sea-level pressure: 1012.8 mb]
Winds: from the SSE (160 degrees) at 10 MPH (9 knots; 4.6 m/s)
Visibility: 10 or more miles (16+ km)
Ceiling: at least 12,000 feet AGL
Clouds: few clouds at 9000 feet AGL
Weather: no significant weather observed at this time

METAR text: KSMF 251153Z 16010KT 10SM FEW090 16/11 A2990 RMK AO2 SLP125 T01560106 10194 20156 53005
Conditions at: KSMF (SACRAMENTO/METRO, CA, US) observed 1153 UTC 25 September 2021
Temperature: 15.6°C (60°F)
Dewpoint: 10.6°C (51°F) [RH = 72%]
Pressure (altimeter): 29.90 inches Hg (1012.6 mb)
[Sea-level pressure: 1012.5 mb]
Winds: from the SSE (160 degrees) at 12 MPH (10 knots; 5.1 m/s)
Visibility: 10 or more miles (16+ km)
Ceiling: at least 12,000 feet AGL
Clouds: few clouds at 9000 feet AGL
Weather: no significant weather observed at this time

METAR text: KSMF 251053Z 14008KT 10SM CLR 16/11 A2989 RMK AO2 SLP122 T01560111
Conditions at: KSMF (SACRAMENTO/METRO, CA, US) observed 1053 UTC 25 September 2021
Temperature: 15.6°C (60°F)
Dewpoint: 11.1°C (52°F) [RH = 75%]
Pressure (altimeter): 29.89 inches Hg (1012.3 mb)
[Sea-level pressure: 1012.2 mb]
Winds: from the SE (140 degrees) at 9 MPH (8 knots; 4.1 m/s)
Visibility: 10 or more miles (16+ km)
Ceiling: at least 12,000 feet AGL
Clouds: sky clear below 12,000 feet AGL
Weather: no significant weather observed at this time

METAR text: KSMF 250953Z 17008KT 10SM CLR 16/11 A2989 RMK AO2 SLP123 T01610111
Conditions at: KSMF (SACRAMENTO/METRO, CA, US) observed 0953 UTC 25 September 2021
Temperature: 16.1°C (61°F)
Dewpoint: 11.1°C (52°F) [RH = 72%]
Pressure (altimeter): 29.89 inches Hg (1012.3 mb)
[Sea-level pressure: 1012.3 mb]
Winds: from the S (170 degrees) at 9 MPH (8 knots; 4.1 m/s)
Visibility: 10 or more miles (16+ km)
Ceiling: at least 12,000 feet AGL
Clouds: sky clear below 12,000 feet AGL
Weather: no significant weather observed at this time

METAR text: KSMF 250853Z 16007KT 10SM CLR 17/11 A2989 RMK AO2 SLP120 T01720111 51009
Conditions at: KSMF (SACRAMENTO/METRO, CA, US) observed 0853 UTC 25 September 2021
Temperature: 17.2°C (63°F)
Dewpoint: 11.1°C (52°F) [RH = 67%]
Pressure (altimeter): 29.89 inches Hg (1012.3 mb)
[Sea-level pressure: 1012.0 mb]
Winds: from the SSE (160 degrees) at 8 MPH (7 knots; 3.6 m/s)
Visibility: 10 or more miles (16+ km)
Ceiling: at least 12,000 feet AGL
Clouds: sky clear below 12,000 feet AGL
Weather: no significant weather observed at this time

METAR text: KSMF 250753Z 16009KT 10SM CLR 18/11 A2988 RMK AO2 SLP117 T01830111 403500133
Conditions at: KSMF (SACRAMENTO/METRO, CA, US) observed 0753 UTC 25 September 2021
Temperature: 18.3°C (65°F)
Dewpoint: 11.1°C (52°F) [RH = 63%]
Pressure (altimeter): 29.88 inches Hg (1011.9 mb)
[Sea-level pressure: 1011.7 mb]
Winds: from the SSE (160 degrees) at 10 MPH (9 knots; 4.6 m/s)
Visibility: 10 or more miles (16+ km)
Ceiling: at least 12,000 feet AGL
Clouds: sky clear below 12,000 feet AGL
Weather: no significant weather observed at this time

Forecast for: KSMF (SACRAMENTO/METRO, CA, US)
Text: KSMF 261727Z 2618/2718 17012KT P6SM FEW250
Forecast period: 1800 UTC 26 September 2021 to 1800 UTC 27 September 2021
Forecast type: FROM: standard forecast or significant change
Winds: from the S (170 degrees) at 14 MPH (12 knots; 6.2 m/s)
Visibility: 6 or more miles (10+ km)
Ceiling: at least 12,000 feet AGL
Clouds: few clouds at 25000 feet AGL
Weather: no significant weather forecast for this period